Time;durP1;ratioP1;P1;durP2;ratioP2;P2;SDS_P1;SDS_P2;PMS_P1;PMS_P2;Temp;Humidity;BMP_temperature;BMP_pressure;BME280_temperature;BME280_humidity;BME280_pressure;Samples;Min_cycle;Max_cycle;Signal;HPM_P1;HPM_P2
2022/07/19 00:01:45;;;;;;;;;;;;;;;15.74;65.91;101084.95;1704644;82;20245;-68
2022/07/19 00:04:13;;;;;;;;;;;;;;;15.73;65.97;101085.21;1704084;84;20437;-68
2022/07/19 00:06:39;;;;;;;;;;;;;;;15.87;65.76;101083.53;1703739;84;21170;-68
2022/07/19 00:09:06;;;;;;;;;;;;;;;15.97;65.46;101086.70;1703303;84;20919;-68
2022/07/19 00:11:33;;;;;;;;;;;;;;;16.01;65.37;101083.70;1703978;84;20154;-68
2022/07/19 00:13:59;;;;;;;;;;;;;;;15.99;65.32;101086.69;1704113;84;20462;-68
2022/07/19 00:16:25;;;;;;;;;;;;;;;15.94;65.42;101087.52;1703846;84;20564;-67
2022/07/19 00:18:52;;;;;;;;;;;;;;;15.92;65.47;101086.17;1700767;84;21057;-67
2022/07/19 00:21:18;;;;;;;;;;;;;;;15.92;65.56;101084.83;1699275;84;20170;-67
2022/07/19 00:23:46;;;;;;;;;;;;;;;15.90;65.59;101085.13;1702691;84;20155;-68
2022/07/19 00:26:13;;;;;;;;;;;;;;;15.89;65.63;101078.65;1701365;84;20428;-68
2022/07/19 00:28:39;;;;;;;;;;;;;;;15.89;65.66;101080.83;1706907;84;20254;-69
2022/07/19 00:31:06;;;;;;;;;;;;;;;15.92;65.66;101082.13;1707281;84;21184;-68
2022/07/19 00:33:33;;;;;;;;;;;;;;;15.92;65.74;101080.23;1707335;84;20171;-67
2022/07/19 00:35:59;;;;;;;;;;;;;;;15.87;65.80;101076.80;1707166;84;20450;-67
2022/07/19 00:38:26;;;;;;;;;;;;;;;15.84;65.88;101079.50;1707117;84;20199;-68
2022/07/19 00:40:52;;;;;;;;;;;;;;;15.83;65.92;101077.10;1703395;84;20246;-68
2022/07/19 00:43:19;;;;;;;;;;;;;;;15.82;65.92;101070.87;1701798;84;21885;-67
2022/07/19 00:45:46;;;;;;;;;;;;;;;15.81;65.95;101071.17;1701559;84;20151;-68
2022/07/19 00:48:12;;;;;;;;;;;;;;;15.78;65.92;101071.73;1703683;82;20638;-68
2022/07/19 00:50:38;;;;;;;;;;;;;;;15.71;66.14;101070.70;1705470;82;20239;-68
2022/07/19 00:53:05;;;;;;;;;;;;;;;15.76;65.99;101068.50;1705281;82;20214;-68
2022/07/19 00:55:35;;;;;;;;;;;;;;;15.76;65.98;101075.23;1703214;82;21122;-68
2022/07/19 00:58:02;;;;;;;;;;;;;;;15.52;66.41;101074.53;1705550;83;20442;-68
2022/07/19 01:00:31;;;;;;;;;;;;;;;15.49;66.48;101077.77;1705105;84;20264;-68
2022/07/19 01:02:58;;;;;;;;;;;;;;;15.61;66.29;101078.80;1692835;82;20215;-68
2022/07/19 01:05:24;;;;;;;;;;;;;;;15.64;66.12;101069.62;1705743;82;20294;-68
2022/07/19 01:07:51;;;;;;;;;;;;;;;15.62;66.08;101068.28;1705337;82;21082;-68
2022/07/19 01:10:18;;;;;;;;;;;;;;;15.58;66.10;101067.23;1704953;82;20658;-68
2022/07/19 01:12:44;;;;;;;;;;;;;;;15.56;66.27;101067.50;1705029;82;20179;-68
2022/07/19 01:15:15;;;;;;;;;;;;;;;15.43;66.63;101067.59;1704525;82;20464;-67
2022/07/19 01:17:42;;;;;;;;;;;;;;;15.30;67.12;101064.16;1697752;82;20166;-68
2022/07/19 01:20:09;;;;;;;;;;;;;;;15.27;67.29;101063.36;1690439;82;21171;-68
2022/07/19 01:22:35;;;;;;;;;;;;;;;15.29;67.31;101065.77;1706000;82;20192;-68
2022/07/19 01:25:04;;;;;;;;;;;;;;;15.26;67.35;101063.08;1705005;82;20457;-68
2022/07/19 01:27:30;;;;;;;;;;;;;;;15.39;67.05;101058.44;1703265;82;20191;-68
2022/07/19 01:29:57;;;;;;;;;;;;;;;15.43;66.89;101056.83;1705813;82;20216;-67
2022/07/19 01:32:24;;;;;;;;;;;;;;;15.46;66.79;101058.97;1704667;82;21160;-68
2022/07/19 01:34:50;;;;;;;;;;;;;;;15.45;66.78;101057.87;1701954;82;20172;-68
2022/07/19 01:37:17;;;;;;;;;;;;;;;15.40;66.76;101057.89;1683223;82;20234;-68
2022/07/19 01:39:43;;;;;;;;;;;;;;;15.37;66.84;101059.81;1677336;85;20517;-68
2022/07/19 01:42:10;;;;;;;;;;;;;;;15.39;66.82;101054.40;1694118;82;20182;-67
2022/07/19 01:44:37;;;;;;;;;;;;;;;15.37;66.82;101056.58;1706480;82;21458;-68
2022/07/19 01:47:04;;;;;;;;;;;;;;;15.19;67.18;101055.84;1707084;84;20218;-68
2022/07/19 01:49:31;;;;;;;;;;;;;;;15.21;67.15;101061.22;1701438;84;20461;-68
2022/07/19 01:51:58;;;;;;;;;;;;;;;15.17;67.30;101062.06;1684895;82;20277;-66
2022/07/19 01:54:25;;;;;;;;;;;;;;;15.16;67.48;101059.08;1677314;85;20524;-69
2022/07/19 01:56:51;;;;;;;;;;;;;;;15.17;67.56;101054.78;1696503;82;21155;-67
2022/07/19 01:59:18;;;;;;;;;;;;;;;15.18;67.67;101059.08;1705720;82;20208;-68
2022/07/19 02:01:44;;;;;;;;;;;;;;;15.20;67.75;101059.63;1707145;82;20219;-67
2022/07/19 02:04:11;;;;;;;;;;;;;;;15.21;67.76;101070.64;1704918;82;20529;-68
2022/07/19 02:06:39;;;;;;;;;;;;;;;15.20;67.82;101066.34;1703244;82;20179;-68
2022/07/19 02:09:05;;;;;;;;;;;;;;;15.21;67.93;101059.88;1706418;84;21892;-67
2022/07/19 02:11:35;;;;;;;;;;;;;;;15.24;67.97;101068.74;1705255;82;20187;-68
2022/07/19 02:14:06;;;;;;;;;;;;;;;15.28;67.92;101065.50;1705187;82;20256;-68
2022/07/19 02:16:32;;;;;;;;;;;;;;;15.31;67.89;101073.03;1705561;82;20191;-67
2022/07/19 02:18:59;;;;;;;;;;;;;;;15.32;67.86;101073.28;1690696;82;20174;-66
2022/07/19 02:21:25;;;;;;;;;;;;;;;15.32;67.88;101069.25;1680282;84;21084;-67
2022/07/19 02:23:52;;;;;;;;;;;;;;;15.32;67.86;101067.36;1703059;84;20163;-68
2022/07/19 02:26:18;;;;;;;;;;;;;;;15.30;67.85;101066.84;1703106;82;20522;-67
2022/07/19 02:28:45;;;;;;;;;;;;;;;15.22;67.96;101069.55;1702521;82;20652;-69
2022/07/19 02:31:11;;;;;;;;;;;;;;;15.15;68.17;101069.59;1704819;82;20245;-68
2022/07/19 02:33:38;;;;;;;;;;;;;;;15.10;68.35;101067.70;1705151;82;21176;-68
2022/07/19 02:36:05;;;;;;;;;;;;;;;15.11;68.64;101072.57;1705330;82;20675;-69
2022/07/19 02:38:31;;;;;;;;;;;;;;;15.08;68.82;101066.39;1705740;82;20206;-67
2022/07/19 02:40:58;;;;;;;;;;;;;;;15.08;69.02;101071.23;1705356;82;20221;-67
2022/07/19 02:43:25;;;;;;;;;;;;;;;15.12;69.20;101070.94;1705377;82;20262;-68
2022/07/19 02:45:51;;;;;;;;;;;;;;;15.14;69.33;101073.37;1705013;82;21113;-68
2022/07/19 02:48:17;;;;;;;;;;;;;;;15.15;69.52;101071.73;1705451;82;20179;-67
2022/07/19 02:50:44;;;;;;;;;;;;;;;15.25;69.66;101071.69;1701799;82;20171;-68
2022/07/19 02:53:11;;;;;;;;;;;;;;;15.35;69.65;101075.42;1705543;82;20182;-66
2022/07/19 02:55:37;;;;;;;;;;;;;;;15.42;69.59;101076.73;1704965;82;20459;-68
2022/07/19 02:58:04;;;;;;;;;;;;;;;15.54;69.50;101075.61;1704026;84;21145;-68
2022/07/19 03:00:30;;;;;;;;;;;;;;;15.62;69.38;101070.44;1705336;82;20230;-68
2022/07/19 03:03:43;;;;;;;;;;;;;;;15.68;69.32;101072.05;1701766;82;20345;-68
2022/07/19 03:05:25;;;;;;;;;;;;;;;15.77;69.29;101064.20;1700765;82;20648;-68
2022/07/19 03:07:53;;;;;;;;;;;;;;;15.88;69.29;101060.34;1704951;82;20172;-68
2022/07/19 03:10:21;;;;;;;;;;;;;;;16.00;69.14;101057.86;1705978;82;20253;-68
2022/07/19 03:12:49;;;;;;;;;;;;;;;16.04;69.03;101048.92;1705434;82;20179;-67
2022/07/19 03:15:16;;;;;;;;;;;;;;;16.09;68.95;101047.55;1704868;82;20167;-68
2022/07/19 03:17:42;;;;;;;;;;;;;;;16.15;68.96;101045.59;1705443;82;20163;-68
2022/07/19 03:20:11;;;;;;;;;;;;;;;16.27;68.86;101043.34;1705017;82;20179;-67
2022/07/19 03:22:37;;;;;;;;;;;;;;;16.38;68.64;101046.73;1705707;82;21126;-69
2022/07/19 03:25:05;;;;;;;;;;;;;;;16.38;68.45;101056.17;1706057;82;20159;-67
2022/07/19 03:27:32;;;;;;;;;;;;;;;16.34;68.44;101054.59;1706054;82;20191;-67
2022/07/19 03:29:58;;;;;;;;;;;;;;;16.33;68.53;101056.23;1706142;82;20343;-68
2022/07/19 03:32:24;;;;;;;;;;;;;;;16.37;68.66;101054.03;1706951;82;20178;-68
2022/07/19 03:34:51;;;;;;;;;;;;;;;16.45;68.77;101057.99;1706681;82;21870;-68
2022/07/19 03:37:18;;;;;;;;;;;;;;;16.51;68.69;101047.42;1703195;82;20187;-67
2022/07/19 03:39:44;;;;;;;;;;;;;;;16.60;68.69;101048.42;1705510;82;20171;-68
2022/07/19 03:42:10;;;;;;;;;;;;;;;16.71;68.73;101053.70;1705124;82;20175;-68
2022/07/19 03:44:37;;;;;;;;;;;;;;;16.85;68.74;101050.63;1705667;82;20469;-67
2022/07/19 03:47:04;;;;;;;;;;;;;;;16.99;68.63;101048.84;1704567;82;21182;-68
2022/07/19 03:49:31;;;;;;;;;;;;;;;17.10;68.41;101055.72;1706943;84;20215;-68
2022/07/19 03:51:58;;;;;;;;;;;;;;;17.26;68.15;101051.48;1705493;82;20223;-68
2022/07/19 03:54:25;;;;;;;;;;;;;;;17.34;67.93;101047.61;1691251;82;20645;-68
2022/07/19 03:56:51;;;;;;;;;;;;;;;17.40;67.87;101053.72;1677280;85;20182;-67
2022/07/19 03:59:19;;;;;;;;;;;;;;;17.43;67.74;101046.39;1694695;82;22227;-67
2022/07/19 04:01:46;;;;;;;;;;;;;;;17.43;67.68;101050.45;1705357;82;20483;-67
2022/07/19 04:04:12;;;;;;;;;;;;;;;17.39;67.75;101048.08;1705227;82;20206;-68
2022/07/19 04:06:40;;;;;;;;;;;;;;;17.48;67.67;101044.98;1704911;82;20472;-68
2022/07/19 04:09:07;;;;;;;;;;;;;;;17.56;67.75;101046.22;1705304;82;20314;-67
2022/07/19 04:11:34;;;;;;;;;;;;;;;17.67;67.67;101045.52;1705955;82;21944;-68
2022/07/19 04:14:00;;;;;;;;;;;;;;;17.78;67.67;101045.67;1703656;82;20206;-68
2022/07/19 04:16:26;;;;;;;;;;;;;;;17.96;67.48;101045.39;1704264;82;20202;-68
2022/07/19 04:18:54;;;;;;;;;;;;;;;18.09;67.22;101049.24;1705623;82;20446;-67
2022/07/19 04:21:20;;;;;;;;;;;;;;;18.18;66.69;101046.92;1705518;82;20208;-67
2022/07/19 04:23:47;;;;;;;;;;;;;;;18.30;66.01;101048.38;1705443;82;21242;-68
2022/07/19 04:26:13;;;;;;;;;;;;;;;18.49;65.24;101045.03;1707147;84;20171;-67
2022/07/19 04:28:39;;;;;;;;;;;;;;;18.69;64.44;101042.50;1706413;83;20187;-67
2022/07/19 04:31:06;;;;;;;;;;;;;;;18.86;63.67;101041.97;1705583;82;20183;-67
2022/07/19 04:33:33;;;;;;;;;;;;;;;19.04;62.92;101045.66;1692589;82;20169;-67
2022/07/19 04:35:59;;;;;;;;;;;;;;;19.18;62.07;101044.56;1677411;85;21230;-67
2022/07/19 04:38:26;;;;;;;;;;;;;;;19.26;60.81;101045.74;1690052;84;20190;-69
2022/07/19 04:40:52;;;;;;;;;;;;;;;19.32;60.31;101040.47;1700114;84;20583;-67
2022/07/19 04:43:19;;;;;;;;;;;;;;;19.42;60.08;101037.54;1707057;82;20171;-68
2022/07/19 04:45:45;;;;;;;;;;;;;;;19.56;59.76;101041.56;1707319;84;20186;-68
2022/07/19 04:48:13;;;;;;;;;;;;;;;19.70;59.27;101040.19;1707344;83;20598;-68
2022/07/19 04:50:40;;;;;;;;;;;;;;;19.81;58.63;101039.39;1706901;84;20191;-67
2022/07/19 04:53:07;;;;;;;;;;;;;;;19.93;57.94;101038.85;1681964;82;20181;-68
2022/07/19 04:55:36;;;;;;;;;;;;;;;19.99;57.77;101036.27;1697548;82;20202;-69
2022/07/19 04:58:02;;;;;;;;;;;;;;;20.10;57.35;101034.37;1705047;82;20206;-69
2022/07/19 05:00:29;;;;;;;;;;;;;;;20.22;56.98;101040.56;1706004;82;21150;-67
2022/07/19 05:02:57;;;;;;;;;;;;;;;20.29;56.45;101041.48;1705645;82;20203;-68
2022/07/19 05:05:23;;;;;;;;;;;;;;;20.33;55.93;101037.83;1706753;82;20207;-69
2022/07/19 05:07:50;;;;;;;;;;;;;;;20.43;55.71;101034.61;1705861;82;20205;-69
2022/07/19 05:10:18;;;;;;;;;;;;;;;20.48;55.15;101038.56;1702123;82;20501;-67
2022/07/19 05:12:45;;;;;;;;;;;;;;;20.51;55.23;101038.77;1705311;82;21161;-68
2022/07/19 05:15:11;;;;;;;;;;;;;;;20.64;55.20;101039.78;1705348;82;20174;-68
2022/07/19 05:17:39;;;;;;;;;;;;;;;20.76;55.04;101037.28;1705042;82;20615;-67
2022/07/19 05:20:08;;;;;;;;;;;;;;;20.92;54.46;101049.06;1707044;84;20182;-67
2022/07/19 05:22:35;;;;;;;;;;;;;;;20.88;53.92;101048.89;1704803;82;20206;-68
2022/07/19 05:25:02;;;;;;;;;;;;;;;20.85;53.60;101045.44;1706065;82;21122;-68
2022/07/19 05:27:36;;;;;;;;;;;;;;;20.93;53.52;101046.61;1707098;83;20478;-69
2022/07/19 05:30:04;;;;;;;;;;;;;;;20.95;53.23;101042.44;1702249;84;20174;-68
2022/07/19 05:32:32;;;;;;;;;;;;;;;21.04;53.36;101045.19;1701312;84;20167;-68
2022/07/19 05:34:58;;;;;;;;;;;;;;;21.09;51.86;101046.38;1701611;84;20177;-68
2022/07/19 05:37:24;;;;;;;;;;;;;;;21.04;51.36;101043.83;1701948;84;21140;-67
2022/07/19 05:39:51;;;;;;;;;;;;;;;21.00;51.25;101044.23;1701594;84;20174;-69
2022/07/19 05:42:17;;;;;;;;;;;;;;;20.95;51.35;101043.80;1705139;84;20170;-68
2022/07/19 05:44:44;;;;;;;;;;;;;;;20.91;51.70;101044.19;1707235;84;20376;-67
2022/07/19 05:47:10;;;;;;;;;;;;;;;20.93;51.91;101047.97;1704633;84;20147;-68
2022/07/19 05:49:37;;;;;;;;;;;;;;;20.97;51.48;101046.22;1703541;84;20742;-67
2022/07/19 05:52:04;;;;;;;;;;;;;;;21.01;50.57;101045.82;1678893;84;20260;-68
2022/07/19 05:54:32;;;;;;;;;;;;;;;21.01;51.06;101046.61;1678564;85;20335;-68
2022/07/19 05:56:59;;;;;;;;;;;;;;;21.06;51.31;101036.18;1678969;85;20460;-68
2022/07/19 05:59:26;;;;;;;;;;;;;;;21.20;50.99;101039.56;1695365;82;20180;-68
2022/07/19 06:01:59;;;;;;;;;;;;;;;21.35;50.60;101040.24;1705235;82;21146;-68
2022/07/19 06:04:25;;;;;;;;;;;;;;;21.42;49.87;101039.20;1701321;84;20230;-68
2022/07/19 06:07:02;;;;;;;;;;;;;;;21.50;49.97;101035.70;1701080;84;20194;-68
2022/07/19 06:09:29;;;;;;;;;;;;;;;21.57;49.17;101033.31;1700019;84;20494;-68
2022/07/19 06:11:55;;;;;;;;;;;;;;;21.63;49.40;101030.67;1701184;84;20572;-68
2022/07/19 06:14:54;;;;;;;;;;;;;;;21.75;49.01;101030.84;1701391;84;21146;-68
2022/07/19 06:17:23;;;;;;;;;;;;;;;21.86;48.62;101042.75;1703981;82;20171;-69
2022/07/19 06:19:49;;;;;;;;;;;;;;;21.94;49.11;101035.12;1716842;83;20162;-68
2022/07/19 06:22:15;;;;;;;;;;;;;;;22.01;48.37;101032.72;1700199;83;20174;-69
2022/07/19 06:24:41;;;;;;;;;;;;;;;21.96;48.55;101039.13;1699609;84;20246;-68
2022/07/19 06:27:09;;;;;;;;;;;;;;;22.09;49.08;101030.55;1701703;84;21493;-68
2022/07/19 06:29:35;;;;;;;;;;;;;;;22.31;48.79;101032.30;1707070;84;20206;-67
2022/07/19 06:32:02;;;;;;;;;;;;;;;22.51;48.30;101029.44;1679180;84;20194;-68
2022/07/19 06:34:28;;;;;;;;;;;;;;;22.60;48.15;101028.82;1678746;85;20204;-67
2022/07/19 06:36:55;;;;;;;;;;;;;;;22.71;47.71;101034.16;1686431;84;20249;-67
2022/07/19 06:39:23;;;;;;;;;;;;;;;22.84;47.22;101028.82;1701492;83;20131;-69
2022/07/19 06:41:49;;;;;;;;;;;;;;;23.00;47.52;101037.23;1701598;84;20167;-69
2022/07/19 06:44:18;;;;;;;;;;;;;;;23.14;47.01;101040.53;1701559;84;20225;-68
2022/07/19 06:46:45;;;;;;;;;;;;;;;23.16;47.22;101034.17;1701827;84;20151;-69
2022/07/19 06:49:11;;;;;;;;;;;;;;;23.21;47.39;101040.02;1701755;84;20140;-68
2022/07/19 06:51:38;;;;;;;;;;;;;;;23.18;46.37;101035.44;1701653;84;21261;-68
2022/07/19 06:54:05;;;;;;;;;;;;;;;23.21;46.18;101027.75;1702513;84;20282;-68
2022/07/19 06:56:31;;;;;;;;;;;;;;;23.17;46.30;101022.16;1703952;84;20154;-68
2022/07/19 06:58:58;;;;;;;;;;;;;;;23.21;46.55;101023.09;1703482;84;21062;-67
2022/07/19 07:01:25;;;;;;;;;;;;;;;23.28;46.54;101023.36;1707391;84;20179;-67
2022/07/19 07:03:51;;;;;;;;;;;;;;;23.34;46.25;101032.94;1705552;82;21521;-67
2022/07/19 07:06:17;;;;;;;;;;;;;;;23.37;45.58;101033.64;1704899;82;20175;-68
2022/07/19 07:08:45;;;;;;;;;;;;;;;23.38;45.27;101039.89;1705005;82;20485;-68
2022/07/19 07:11:12;;;;;;;;;;;;;;;23.32;45.18;101034.39;1705770;82;20175;-68
2022/07/19 07:13:40;;;;;;;;;;;;;;;23.26;45.75;101035.14;1705512;82;20285;-68
2022/07/19 07:16:08;;;;;;;;;;;;;;;23.21;45.77;101039.44;1704876;82;20553;-69
2022/07/19 07:18:35;;;;;;;;;;;;;;;23.15;45.88;101036.11;1705292;82;20242;-68
2022/07/19 07:21:03;;;;;;;;;;;;;;;23.13;45.79;101037.55;1705326;82;20178;-68
2022/07/19 07:23:30;;;;;;;;;;;;;;;23.16;45.81;101036.89;1705810;82;20218;-68
2022/07/19 07:25:56;;;;;;;;;;;;;;;23.20;45.79;101032.94;1705559;82;20187;-68
2022/07/19 07:28:22;;;;;;;;;;;;;;;23.21;45.79;101037.28;1702299;82;21153;-67
2022/07/19 07:30:49;;;;;;;;;;;;;;;23.21;45.73;101033.99;1678196;84;20264;-67
2022/07/19 07:33:16;;;;;;;;;;;;;;;23.21;45.91;101030.47;1684386;82;20233;-68
2022/07/19 07:35:42;;;;;;;;;;;;;;;23.28;46.16;101035.62;1707123;82;20203;-68
2022/07/19 07:38:10;;;;;;;;;;;;;;;23.39;46.24;101036.02;1705768;82;20231;-68
2022/07/19 07:40:37;;;;;;;;;;;;;;;23.49;45.95;101034.83;1700535;82;21173;-69
2022/07/19 07:43:03;;;;;;;;;;;;;;;23.58;45.81;101032.84;1706084;82;20177;-69
2022/07/19 07:45:30;;;;;;;;;;;;;;;23.69;45.77;101028.62;1705124;82;20222;-68
2022/07/19 07:47:56;;;;;;;;;;;;;;;23.77;45.16;101035.12;1704599;82;20336;-67
2022/07/19 07:50:22;;;;;;;;;;;;;;;23.83;44.69;101039.25;1705715;82;20163;-69
2022/07/19 07:52:49;;;;;;;;;;;;;;;23.90;45.07;101042.22;1705644;82;21182;-68
2022/07/19 07:55:15;;;;;;;;;;;;;;;23.95;45.14;101044.72;1705037;82;20681;-68
2022/07/19 07:57:42;;;;;;;;;;;;;;;24.02;45.12;101048.27;1701875;82;20195;-69
2022/07/19 08:00:12;;;;;;;;;;;;;;;24.16;44.73;101042.54;1705194;82;20428;-68
2022/07/19 08:02:39;;;;;;;;;;;;;;;24.34;44.86;101038.47;1705231;82;20673;-69
2022/07/19 08:05:06;;;;;;;;;;;;;;;24.45;44.40;101040.22;1698570;82;21090;-68
2022/07/19 08:07:33;;;;;;;;;;;;;;;24.55;44.27;101045.27;1683937;84;20168;-68
2022/07/19 08:10:00;;;;;;;;;;;;;;;24.67;44.35;101046.63;1706799;82;20211;-68
2022/07/19 08:12:26;;;;;;;;;;;;;;;24.74;43.68;101049.58;1707374;84;20175;-69
2022/07/19 08:14:53;;;;;;;;;;;;;;;24.68;43.00;101047.41;1706682;84;20183;-68
2022/07/19 08:17:20;;;;;;;;;;;;;;;24.52;43.75;101052.20;1703997;82;21217;-68
2022/07/19 08:19:46;;;;;;;;;;;;;;;24.42;43.76;101045.81;1704243;82;20469;-69
2022/07/19 08:22:18;;;;;;;;;;;;;;;24.40;43.97;101051.34;1704805;82;20480;-68
2022/07/19 08:24:45;;;;;;;;;;;;;;;24.30;44.48;101054.73;1705893;82;20707;-68
2022/07/19 08:27:11;;;;;;;;;;;;;;;24.22;43.29;101055.64;1705228;82;20171;-69
2022/07/19 08:29:39;;;;;;;;;;;;;;;24.06;43.34;101061.50;1685626;82;21170;-67
2022/07/19 08:32:05;;;;;;;;;;;;;;;23.83;43.79;101055.61;1677302;85;20412;-68
2022/07/19 08:34:33;;;;;;;;;;;;;;;23.56;44.17;101060.45;1692971;82;20215;-68
2022/07/19 08:37:00;;;;;;;;;;;;;;;23.33;44.91;101056.42;1702731;84;20202;-69
2022/07/19 08:39:27;;;;;;;;;;;;;;;23.10;45.51;101057.28;1705051;82;20168;-68
2022/07/19 08:41:53;;;;;;;;;;;;;;;22.93;45.93;101062.27;1705834;82;21134;-67
2022/07/19 08:44:19;;;;;;;;;;;;;;;22.81;46.46;101064.88;1705343;82;20255;-67
2022/07/19 08:46:46;;;;;;;;;;;;;;;22.76;46.71;101054.16;1705292;82;20461;-67
2022/07/19 08:49:13;;;;;;;;;;;;;;;22.63;47.29;101049.95;1705559;82;20919;-68
2022/07/19 08:51:39;;;;;;;;;;;;;;;22.54;47.74;101051.92;1707078;82;20187;-68
2022/07/19 08:54:07;;;;;;;;;;;;;;;22.50;47.89;101044.16;1702595;84;21301;-69
2022/07/19 08:59:18;;;;;;;;;;;;;;;22.56;48.48;101040.13;1702438;82;20227;-68
2022/07/19 09:01:45;;;;;;;;;;;;;;;22.62;48.82;101038.83;1704778;82;20840;-68
2022/07/19 09:04:19;;;;;;;;;;;;;;;22.67;48.70;101040.03;1705211;82;20217;-68
2022/07/19 09:06:49;;;;;;;;;;;;;;;22.80;48.96;101041.47;1702523;82;21152;-68
2022/07/19 09:09:17;;;;;;;;;;;;;;;22.96;48.88;101042.55;1704632;82;20222;-68
2022/07/19 09:11:48;;;;;;;;;;;;;;;23.03;48.55;101042.81;1705441;82;20199;-68
2022/07/19 09:14:17;;;;;;;;;;;;;;;23.13;48.75;101039.74;1707231;84;20159;-68
2022/07/19 09:16:52;;;;;;;;;;;;;;;23.24;49.10;101040.72;1688650;84;20181;-68
2022/07/19 09:19:19;;;;;;;;;;;;;;;23.28;49.06;101043.01;1646291;87;21614;-69
2022/07/19 09:22:06;;;;;;;;;;;;;;;23.29;48.63;101035.84;1664259;84;20264;-68
2022/07/19 09:24:35;;;;;;;;;;;;;;;23.30;48.96;101040.19;1671484;84;20191;-69
2022/07/19 09:27:10;;;;;;;;;;;;;;;23.28;48.57;101037.55;1673619;84;20165;-68
2022/07/19 09:29:39;;;;;;;;;;;;;;;23.27;48.59;101040.84;1673463;84;20528;-68
2022/07/19 09:32:11;;;;;;;;;;;;;;;23.21;49.14;101035.92;1675409;85;21964;-68
2022/07/19 09:34:44;;;;;;;;;;;;;;;23.15;49.07;101033.95;1675052;84;20201;-69
2022/07/19 09:37:16;;;;;;;;;;;;;;;23.08;49.15;101029.02;1671462;84;20145;-68
2022/07/19 09:39:46;;;;;;;;;;;;;;;23.09;49.40;101028.45;1645247;84;20193;-68
2022/07/19 09:42:17;;;;;;;;;;;;;;;23.20;49.59;101029.68;1648267;87;20179;-67
2022/07/19 09:44:44;;;;;;;;;;;;;;;23.27;49.81;101020.98;1663255;86;21230;-68
2022/07/19 09:47:13;;;;;;;;;;;;;;;23.37;49.84;101031.48;1670324;85;20098;-67
2022/07/19 09:49:39;;;;;;;;;;;;;;;23.50;49.84;101028.27;1672131;84;20184;-68
2022/07/19 09:52:05;;;;;;;;;;;;;;;23.63;49.43;101026.63;1675162;84;20596;-68
2022/07/19 09:54:32;;;;;;;;;;;;;;;23.63;48.79;101019.80;1674897;84;20149;-68
2022/07/19 09:56:59;;;;;;;;;;;;;;;23.50;48.83;101029.06;1674639;84;21598;-68
2022/07/19 09:59:28;;;;;;;;;;;;;;;23.38;48.74;101023.53;1671146;84;20184;-68
2022/07/19 10:01:55;;;;;;;;;;;;;;;23.27;49.35;101023.70;1672019;85;20149;-68
2022/07/19 10:04:24;;;;;;;;;;;;;;;23.23;49.51;101022.20;1670288;84;20457;-68
2022/07/19 10:06:53;;;;;;;;;;;;;;;23.18;49.76;101019.66;1648325;86;20147;-67
2022/07/19 10:09:21;;;;;;;;;;;;;;;23.05;49.97;101021.50;1668163;84;21081;-68
2022/07/19 10:11:48;;;;;;;;;;;;;;;22.96;51.72;101024.84;1674475;84;20149;-68
2022/07/19 10:14:15;;;;;;;;;;;;;;;22.89;53.07;101009.55;1674064;84;20154;-69
2022/07/19 10:16:55;;;;;;;;;;;;;;;22.92;54.08;101011.62;1675001;84;20217;-68
2022/07/19 10:19:41;;;;;;;;;;;;;;;23.01;54.39;101008.31;1673104;84;20173;-67
2022/07/19 10:22:13;;;;;;;;;;;;;;;23.13;54.38;101016.58;1675712;85;21815;-70
2022/07/19 10:24:48;;;;;;;;;;;;;;;23.27;54.73;101016.89;1671135;84;20198;-68
2022/07/19 10:27:21;;;;;;;;;;;;;;;23.54;54.33;101004.08;1671657;84;20235;-68
2022/07/19 10:29:48;;;;;;;;;;;;;;;23.75;53.91;101006.01;1670331;84;20202;-68
2022/07/19 10:32:14;;;;;;;;;;;;;;;23.92;53.75;101003.11;1647878;85;20152;-68
2022/07/19 10:34:43;;;;;;;;;;;;;;;24.17;53.48;100996.36;1674344;85;21145;-68
2022/07/19 10:37:09;;;;;;;;;;;;;;;24.34;52.64;100998.31;1671323;84;20149;-68
2022/07/19 10:39:38;;;;;;;;;;;;;;;24.48;51.41;100995.31;1648647;84;20431;-68
2022/07/19 10:42:21;;;;;;;;;;;;;;;24.64;50.81;100995.98;1649894;84;20549;-68
2022/07/19 10:45:00;;;;;;;;;;;;;;;24.78;50.33;100994.51;1621725;87;20164;-68
2022/07/19 10:47:38;;;;;;;;;;;;;;;24.98;49.33;100984.58;1668307;84;21825;-68
2022/07/19 10:50:14;;;;;;;;;;;;;;;25.18;48.77;100986.17;1673485;84;20440;-69
2022/07/19 10:52:42;;;;;;;;;;;;;;;25.28;47.62;100978.84;1671568;84;20521;-68
2022/07/19 10:55:24;;;;;;;;;;;;;;;25.24;47.52;100976.02;1673603;84;20749;-68
2022/07/19 10:57:52;;;;;;;;;;;;;;;25.21;48.00;100982.75;1673520;84;20149;-68
2022/07/19 11:00:28;;;;;;;;;;;;;;;25.28;47.93;100976.69;1673704;84;21220;-69
2022/07/19 11:03:22;;;;;;;;;;;;;;;25.42;47.54;100971.05;1655860;84;20140;-68
2022/07/19 11:05:53;;;;;;;;;;;;;;;25.56;47.14;100968.48;1674255;85;20191;-68
2022/07/19 11:08:42;;;;;;;;;;;;;;;25.63;46.55;100971.41;1675111;84;20173;-68
2022/07/19 11:11:15;;;;;;;;;;;;;;;25.68;45.82;100962.39;1670110;86;20303;-67
2022/07/19 11:13:48;;;;;;;;;;;;;;;25.77;45.45;100963.61;1672464;84;21514;-69
2022/07/19 11:16:15;;;;;;;;;;;;;;;25.75;44.66;100959.05;1674549;84;20220;-68
2022/07/19 11:18:44;;;;;;;;;;;;;;;25.67;45.15;100954.55;1672837;84;20242;-68
2022/07/19 11:21:14;;;;;;;;;;;;;;;25.69;45.72;100952.23;1673785;84;20219;-68
2022/07/19 11:23:41;;;;;;;;;;;;;;;25.70;45.53;100961.48;1674366;84;20482;-68
2022/07/19 11:26:17;;;;;;;;;;;;;;;25.59;44.89;100959.00;1673741;84;21162;-69
2022/07/19 11:28:45;;;;;;;;;;;;;;;25.40;45.29;100952.84;1674560;84;20133;-67
2022/07/19 11:31:22;;;;;;;;;;;;;;;25.26;45.82;100952.41;1674088;84;20134;-68
2022/07/19 11:33:58;;;;;;;;;;;;;;;25.14;45.58;100953.81;1672199;84;20161;-69
2022/07/19 11:36:26;;;;;;;;;;;;;;;25.02;46.35;100949.16;1653335;84;20159;-68
2022/07/19 11:39:00;;;;;;;;;;;;;;;24.86;46.08;100955.91;1670451;84;21855;-67
2022/07/19 11:41:29;;;;;;;;;;;;;;;24.77;46.63;100953.86;1675600;85;20137;-68
2022/07/19 11:43:58;;;;;;;;;;;;;;;24.72;46.81;100950.80;1671725;85;20161;-68
2022/07/19 11:46:31;;;;;;;;;;;;;;;24.62;47.32;100946.38;1670001;86;20212;-67
2022/07/19 11:48:58;;;;;;;;;;;;;;;24.51;48.55;100957.77;1668547;86;20216;-68
2022/07/19 11:51:24;;;;;;;;;;;;;;;24.44;49.40;100956.15;1674366;85;21796;-68
2022/07/19 11:53:53;;;;;;;;;;;;;;;24.39;50.26;100953.62;1675602;85;20459;-67
2022/07/19 11:56:22;;;;;;;;;;;;;;;24.24;50.14;100948.83;1675519;85;20177;-68
2022/07/19 11:58:51;;;;;;;;;;;;;;;24.16;51.15;100942.35;1675559;85;20153;-68
2022/07/19 12:01:32;;;;;;;;;;;;;;;24.20;51.11;100934.28;1670825;85;20449;-68
2022/07/19 12:04:03;;;;;;;;;;;;;;;24.29;50.79;100934.97;1675504;84;21067;-68
2022/07/19 12:06:39;;;;;;;;;;;;;;;24.47;51.30;100936.92;1672369;86;20437;-68
2022/07/19 12:09:06;;;;;;;;;;;;;;;24.72;51.35;100928.16;1672382;86;20392;-68
2022/07/19 12:11:45;;;;;;;;;;;;;;;25.14;51.19;100923.20;1670421;85;20673;-69
2022/07/19 12:14:27;;;;;;;;;;;;;;;25.46;48.37;100915.87;1664507;86;20154;-67
2022/07/19 12:17:14;;;;;;;;;;;;;;;25.66;47.77;100920.89;1668930;86;21794;-69
2022/07/19 12:19:43;;;;;;;;;;;;;;;25.76;47.82;100917.43;1670001;85;20150;-68
2022/07/19 12:22:36;;;;;;;;;;;;;;;25.88;47.49;100908.60;1670619;86;20153;-68
2022/07/19 12:25:03;;;;;;;;;;;;;;;25.96;47.00;100906.83;1670297;86;20183;-68
2022/07/19 12:27:30;;;;;;;;;;;;;;;25.99;46.49;100909.45;1670423;86;20169;-68
2022/07/19 12:30:02;;;;;;;;;;;;;;;26.02;45.67;100908.16;1670359;85;21089;-68
2022/07/19 12:32:34;;;;;;;;;;;;;;;25.93;44.81;100901.52;1670537;85;20165;-68
2022/07/19 12:35:05;;;;;;;;;;;;;;;25.80;44.35;100897.27;1670383;86;20156;-68
2022/07/19 12:37:36;;;;;;;;;;;;;;;25.70;44.98;100900.50;1672751;85;20153;-68
2022/07/19 12:40:13;;;;;;;;;;;;;;;25.57;44.06;100896.22;1675769;85;20177;-68
2022/07/19 12:42:44;;;;;;;;;;;;;;;25.41;44.33;100895.63;1675831;85;21145;-68
2022/07/19 12:45:18;;;;;;;;;;;;;;;25.28;44.37;100892.73;1675601;85;20149;-67